createdAt,value
2018-02-16T00:01:31.548Z,96.20
2018-02-16T00:03:59.851Z,96.20
2018-02-16T00:06:28.152Z,96.10
2018-02-16T00:08:56.516Z,96.10
2018-02-16T00:11:24.810Z,95.90
2018-02-16T00:13:53.127Z,95.90
2018-02-16T00:16:21.467Z,95.90
2018-02-16T00:18:49.782Z,95.90
2018-02-16T00:21:18.082Z,95.90
2018-02-16T00:23:47.142Z,96.00
2018-02-16T00:26:15.502Z,95.70
2018-02-16T00:28:43.794Z,95.70
2018-02-16T00:31:12.110Z,95.80
2018-02-16T00:33:41.232Z,95.70
2018-02-16T00:36:10.318Z,95.50
2018-02-16T00:38:39.386Z,95.90
2018-02-16T00:41:07.744Z,95.40
2018-02-16T00:43:36.050Z,95.40
2018-02-16T00:46:04.382Z,95.80
2018-02-16T00:48:33.454Z,95.40
2018-02-16T00:51:01.830Z,95.40
2018-02-16T00:53:30.142Z,95.30
2018-02-16T00:55:59.204Z,95.20
2018-02-16T00:58:27.510Z,95.10
2018-02-16T01:00:56.594Z,95.30
2018-02-16T01:03:24.941Z,95.20
2018-02-16T01:05:53.238Z,95.30
2018-02-16T01:08:21.592Z,95.30
2018-02-16T01:10:50.674Z,95.50
2018-02-16T01:13:19.764Z,95.40
2018-02-16T01:15:48.829Z,95.50
2018-02-16T01:18:17.136Z,95.50
2018-02-16T01:20:45.448Z,95.50
2018-02-16T01:23:13.758Z,95.50
2018-02-16T01:25:42.052Z,95.60
2018-02-16T01:28:10.346Z,95.60
2018-02-16T01:30:38.660Z,95.60
2018-02-16T01:33:07.758Z,95.70
2018-02-16T01:35:36.843Z,95.70
2018-02-16T01:38:05.914Z,95.70
2018-02-16T01:40:34.208Z,95.70
2018-02-16T01:43:02.539Z,95.70
2018-02-16T01:45:31.548Z,95.70
2018-02-16T01:47:59.866Z,95.80
2018-02-16T01:50:28.282Z,95.80
2018-02-16T01:52:57.368Z,95.70
2018-02-16T01:55:25.697Z,95.70
2018-02-16T01:57:54.070Z,95.60
2018-02-16T02:00:22.376Z,95.60
2018-02-16T02:02:50.673Z,95.50
2018-02-16T02:05:18.996Z,95.60
2018-02-16T02:07:47.288Z,95.60
2018-02-16T02:10:15.712Z,95.50
2018-02-16T02:12:44.834Z,95.30
2018-02-16T02:15:13.168Z,95.30
2018-02-16T02:17:41.466Z,95.30
2018-02-16T02:20:09.934Z,95.30
2018-02-16T02:22:38.237Z,95.40
2018-02-16T02:25:06.592Z,95.30
2018-02-16T02:27:34.922Z,95.30
2018-02-16T02:30:03.228Z,95.30
2018-02-16T02:32:32.322Z,95.30
2018-02-16T02:35:01.424Z,95.30
2018-02-16T02:37:30.492Z,95.30
2018-02-16T02:39:58.810Z,95.30
2018-02-16T02:42:27.874Z,95.30
2018-02-16T02:44:56.245Z,95.30
2018-02-16T02:47:24.646Z,95.20
2018-02-16T02:49:52.982Z,95.20
2018-02-16T02:52:21.287Z,95.10
2018-02-16T02:54:50.215Z,95.10
2018-02-16T02:57:18.532Z,95.00
2018-02-16T02:59:46.837Z,94.90
2018-02-16T03:02:15.139Z,94.80
2018-02-16T03:04:43.446Z,94.70
2018-02-16T03:07:12.522Z,95.00
2018-02-16T03:09:40.821Z,94.80
2018-02-16T03:12:09.913Z,94.60
2018-02-16T03:14:38.204Z,94.50
2018-02-16T03:17:07.282Z,94.40
2018-02-16T03:19:35.607Z,94.40
2018-02-16T03:22:04.771Z,94.40
2018-02-16T03:24:33.085Z,94.30
2018-02-16T03:27:02.182Z,94.60
2018-02-16T03:29:31.301Z,94.50
2018-02-16T03:31:59.608Z,94.50
2018-02-16T03:34:27.926Z,94.50
2018-02-16T03:36:57.075Z,94.50
2018-02-16T03:39:25.607Z,94.40
2018-02-16T03:41:53.908Z,94.40
2018-02-16T03:44:22.987Z,94.50
2018-02-16T03:46:51.306Z,94.50
2018-02-16T03:49:19.646Z,94.50
2018-02-16T03:51:48.485Z,94.50
2018-02-16T03:54:16.804Z,94.50
2018-02-16T03:56:45.118Z,94.60
2018-02-16T03:59:13.432Z,94.60
2018-02-16T04:01:41.756Z,94.70
2018-02-16T04:04:10.058Z,94.60
2018-02-16T04:06:38.384Z,94.70
2018-02-16T04:09:07.062Z,94.70
2018-02-16T04:11:36.148Z,94.80
2018-02-16T04:14:04.498Z,94.80
2018-02-16T04:16:32.807Z,94.80
2018-02-16T04:19:02.114Z,95.10
2018-02-16T04:21:31.176Z,95.00
2018-02-16T04:23:59.542Z,94.90
2018-02-16T04:26:27.861Z,95.00
2018-02-16T04:28:56.958Z,95.00
2018-02-16T04:31:25.412Z,95.00
2018-02-16T04:33:53.748Z,95.00
2018-02-16T04:36:22.822Z,95.10
2018-02-16T04:38:51.127Z,95.10
2018-02-16T04:41:20.459Z,95.20
2018-02-16T04:43:49.597Z,95.10
2018-02-16T04:46:17.917Z,95.30
2018-02-16T04:48:46.975Z,95.30
2018-02-16T04:51:15.438Z,95.30
2018-02-16T04:53:43.747Z,95.40
2018-02-16T04:56:12.056Z,95.50
2018-02-16T04:58:41.131Z,95.50
2018-02-16T05:01:09.465Z,95.50
2018-02-16T05:03:37.781Z,95.50
2018-02-16T05:06:06.081Z,95.60
2018-02-16T05:08:34.423Z,95.70
2018-02-16T05:11:02.763Z,95.70
2018-02-16T05:13:31.833Z,95.80
2018-02-16T05:16:00.159Z,95.70
2018-02-16T05:18:29.247Z,95.70
2018-02-16T05:20:59.027Z,95.70
2018-02-16T05:23:27.349Z,95.70
2018-02-16T05:25:56.459Z,95.70
2018-02-16T05:28:24.794Z,95.60
2018-02-16T05:30:53.133Z,95.70
2018-02-16T05:33:21.470Z,95.70
2018-02-16T05:35:49.769Z,95.80
2018-02-16T05:38:18.077Z,95.90
2018-02-16T05:40:46.371Z,96.10
2018-02-16T05:43:14.664Z,96.10
2018-02-16T05:45:42.991Z,96.10
2018-02-16T05:48:11.301Z,96.10
2018-02-16T05:50:39.595Z,96.20
2018-02-16T05:53:07.903Z,96.20
2018-02-16T05:55:36.234Z,96.30
2018-02-16T05:58:06.137Z,96.30
2018-02-16T06:00:34.425Z,96.60
2018-02-16T06:03:03.525Z,96.30
2018-02-16T06:05:32.619Z,96.30
2018-02-16T06:08:01.693Z,96.30
2018-02-16T06:10:29.990Z,96.30
2018-02-16T06:12:58.297Z,96.30
2018-02-16T06:15:27.401Z,96.70
2018-02-16T06:17:55.728Z,96.30
2018-02-16T06:20:24.045Z,96.30
2018-02-16T06:22:52.343Z,96.20
2018-02-16T06:25:21.415Z,96.20
2018-02-16T06:27:50.491Z,96.20
2018-02-16T06:30:18.797Z,96.20
2018-02-16T06:32:47.913Z,96.20
2018-02-16T06:35:16.979Z,96.20
2018-02-16T06:37:46.725Z,96.10
2018-02-16T06:40:15.863Z,96.10
2018-02-16T06:42:44.157Z,96.10
2018-02-16T06:45:12.476Z,96.10
2018-02-16T06:47:41.587Z,96.00
2018-02-16T06:50:10.657Z,95.90
2018-02-16T06:52:38.963Z,95.90
2018-02-16T06:55:08.055Z,95.90
2018-02-16T06:57:36.511Z,95.90
2018-02-16T07:00:04.827Z,95.80
2018-02-16T07:02:33.891Z,96.00
2018-02-16T07:05:02.203Z,95.70
2018-02-16T07:07:31.321Z,95.70
2018-02-16T07:09:59.581Z,95.50
2018-02-16T07:12:28.668Z,95.20
2018-02-16T07:14:57.871Z,95.40
2018-02-16T07:17:26.191Z,95.40
2018-02-16T07:19:54.501Z,95.30
2018-02-16T07:22:22.823Z,95.40
2018-02-16T07:24:51.883Z,95.40
2018-02-16T07:27:20.203Z,95.40
2018-02-16T07:29:48.624Z,95.20
2018-02-16T07:32:16.933Z,95.20
2018-02-16T07:34:45.253Z,95.30
2018-02-16T07:37:14.315Z,95.30
2018-02-16T07:39:42.615Z,95.30
2018-02-16T07:42:10.915Z,95.20
2018-02-16T07:44:39.216Z,95.10
2018-02-16T07:47:07.547Z,95.10
2018-02-16T07:49:35.835Z,95.10
2018-02-16T07:52:04.162Z,95.00
2018-02-16T07:54:33.857Z,94.70
2018-02-16T07:57:02.946Z,94.80
2018-02-16T07:59:32.757Z,94.80
2018-02-16T08:02:01.059Z,94.80
2018-02-16T08:04:30.171Z,95.00
2018-02-16T08:06:59.255Z,94.70
2018-02-16T08:09:28.321Z,94.60
2018-02-16T08:11:56.656Z,94.60
2018-02-16T08:14:25.749Z,94.50
2018-02-16T08:16:54.856Z,94.50
2018-02-16T08:19:23.185Z,94.40
2018-02-16T08:21:51.532Z,94.50
2018-02-16T08:24:19.866Z,94.40
2018-02-16T08:26:48.178Z,94.40
2018-02-16T08:29:17.473Z,94.10
2018-02-16T08:31:46.551Z,93.90
2018-02-16T08:34:14.902Z,93.90
2018-02-16T08:36:43.236Z,93.90
2018-02-16T08:39:12.303Z,93.80
2018-02-16T08:41:40.641Z,93.70
2018-02-16T08:44:08.950Z,93.70
2018-02-16T08:46:37.255Z,93.70
2018-02-16T08:49:05.555Z,93.70
2018-02-16T08:51:34.653Z,93.50
2018-02-16T08:54:02.963Z,93.40
2018-02-16T08:56:31.259Z,93.20
2018-02-16T08:58:59.559Z,93.00
2018-02-16T09:01:27.853Z,93.00
2018-02-16T09:03:56.169Z,92.90
2018-02-16T09:06:25.330Z,92.90
2018-02-16T09:08:53.641Z,92.90
2018-02-16T09:11:21.955Z,92.40
2018-02-16T09:13:50.246Z,92.20
2018-02-16T09:16:19.407Z,92.00
2018-02-16T09:18:47.833Z,91.80
2018-02-16T09:21:16.133Z,91.80
2018-02-16T09:23:44.436Z,91.60
2018-02-16T09:26:14.261Z,91.10
2018-02-16T09:28:42.688Z,91.00
2018-02-16T09:31:11.028Z,90.90
2018-02-16T09:33:40.299Z,90.70
2018-02-16T09:36:09.167Z,90.70
2018-02-16T09:38:38.402Z,90.50
2018-02-16T09:41:06.811Z,90.40
2018-02-16T09:43:35.905Z,90.40
2018-02-16T09:46:05.009Z,90.40
2018-02-16T09:48:34.092Z,90.30
2018-02-16T09:51:02.404Z,90.30
2018-02-16T09:53:31.489Z,89.30
2018-02-16T09:56:00.545Z,89.20
2018-02-16T09:58:28.859Z,89.30
2018-02-16T10:00:57.145Z,88.70
2018-02-16T10:03:25.463Z,88.30
2018-02-16T10:05:53.759Z,87.50
2018-02-16T10:08:22.072Z,87.10
2018-02-16T10:10:50.407Z,86.50
2018-02-16T10:13:19.485Z,87.10
2018-02-16T10:15:47.832Z,86.90
2018-02-16T10:18:16.117Z,87.00
2018-02-16T10:20:44.403Z,87.10
2018-02-16T10:23:12.701Z,87.00
2018-02-16T10:25:41.010Z,86.90
2018-02-16T10:28:10.105Z,85.80
2018-02-16T10:30:39.190Z,85.30
2018-02-16T10:33:07.491Z,85.10
2018-02-16T10:35:36.567Z,84.30
2018-02-16T10:38:04.881Z,84.20
2018-02-16T10:40:33.180Z,84.00
2018-02-16T10:43:01.525Z,84.00
2018-02-16T10:45:30.665Z,81.80
2018-02-16T10:47:58.991Z,81.70
2018-02-16T10:50:28.808Z,82.10
2018-02-16T10:52:58.620Z,81.70
2018-02-16T10:55:28.442Z,81.60
2018-02-16T10:57:56.763Z,81.60
2018-02-16T11:00:30.598Z,81.60
2018-02-16T11:03:04.386Z,80.40
2018-02-16T11:05:45.150Z,79.10
2018-02-16T11:08:18.963Z,78.90
2018-02-16T11:10:47.317Z,78.20
2018-02-16T11:13:16.406Z,78.80
2018-02-16T11:15:45.478Z,79.60
2018-02-16T11:18:13.795Z,79.60
2018-02-16T11:20:42.856Z,78.50
2018-02-16T11:23:11.168Z,78.40
2018-02-16T11:25:40.253Z,78.30
2018-02-16T11:28:08.546Z,78.30
2018-02-16T11:30:37.616Z,77.50
2018-02-16T11:33:05.909Z,77.40
2018-02-16T11:35:34.225Z,77.10
2018-02-16T11:38:02.518Z,77.40
2018-02-16T11:40:30.816Z,76.60
2018-02-16T11:42:59.124Z,75.90
2018-02-16T11:45:27.467Z,75.40
2018-02-16T11:47:55.760Z,75.30
2018-02-16T11:50:24.056Z,75.70
2018-02-16T11:52:52.360Z,76.50
2018-02-16T11:55:20.673Z,77.40
2018-02-16T11:57:48.977Z,77.90
2018-02-16T12:00:17.295Z,77.10
2018-02-16T12:02:45.837Z,77.10
2018-02-16T12:05:14.134Z,77.00
2018-02-16T12:07:42.468Z,76.90
2018-02-16T12:10:11.536Z,75.20
2018-02-16T12:12:39.854Z,75.20
2018-02-16T12:15:08.934Z,74.60
2018-02-16T12:17:37.292Z,74.60
2018-02-16T12:20:05.591Z,74.40
2018-02-16T12:22:33.918Z,74.30
2018-02-16T12:25:02.212Z,74.40
2018-02-16T12:27:30.526Z,74.70
2018-02-16T12:29:58.832Z,74.70
2018-02-16T12:32:27.959Z,75.00
2018-02-16T12:34:56.262Z,75.50
2018-02-16T12:37:24.680Z,75.90
2018-02-16T12:39:52.975Z,75.90
2018-02-16T12:42:21.357Z,75.80
2018-02-16T12:44:49.655Z,76.30
2018-02-16T12:47:18.724Z,75.60
2018-02-16T12:49:47.852Z,76.10
2018-02-16T12:52:16.955Z,75.80
2018-02-16T12:54:46.026Z,75.60
2018-02-16T12:57:15.108Z,75.80
2018-02-16T12:59:43.432Z,75.80
2018-02-16T13:02:11.760Z,75.20
2018-02-16T13:04:40.052Z,75.20
2018-02-16T13:07:08.348Z,74.50
2018-02-16T13:09:36.644Z,74.60
2018-02-16T13:12:05.702Z,73.60
2018-02-16T13:14:34.048Z,73.60
2018-02-16T13:17:02.449Z,73.60
2018-02-16T13:19:30.779Z,74.00
2018-02-16T13:21:59.052Z,74.10
2018-02-16T13:24:27.368Z,74.70
2018-02-16T13:26:56.463Z,74.00
2018-02-16T13:29:25.556Z,73.80
2018-02-16T13:31:53.878Z,73.70
2018-02-16T13:34:22.196Z,73.70
2018-02-16T13:36:50.509Z,74.30
2018-02-16T13:39:19.583Z,75.10
2018-02-16T13:41:47.925Z,75.10
2018-02-16T13:44:16.211Z,74.70
2018-02-16T13:46:44.535Z,74.50
2018-02-16T13:49:12.858Z,74.10
2018-02-16T13:51:41.169Z,74.50
2018-02-16T13:54:09.494Z,74.50
2018-02-16T13:56:38.571Z,75.00
2018-02-16T13:59:06.905Z,74.90
2018-02-16T14:01:35.212Z,73.90
2018-02-16T14:04:03.504Z,73.40
2018-02-16T14:06:31.808Z,73.60
2018-02-16T14:09:00.125Z,73.40
2018-02-16T14:11:28.420Z,74.10
2018-02-16T14:13:56.730Z,74.30
2018-02-16T14:16:25.081Z,73.50
2018-02-16T14:18:54.058Z,73.30
2018-02-16T14:21:22.358Z,74.50
2018-02-16T14:23:50.688Z,74.70
2018-02-16T14:26:19.024Z,74.50
2018-02-16T14:28:47.385Z,74.10
2018-02-16T14:31:17.152Z,74.30
2018-02-16T14:33:46.250Z,75.30
2018-02-16T14:36:14.544Z,75.30
2018-02-16T14:38:44.350Z,76.80
2018-02-16T14:41:12.646Z,76.90
2018-02-16T14:43:41.714Z,77.50
2018-02-16T14:46:10.074Z,77.70
2018-02-16T14:48:38.381Z,77.40
2018-02-16T14:51:06.715Z,76.60
2018-02-16T14:53:36.638Z,75.30
2018-02-16T14:56:05.749Z,75.60
2018-02-16T14:58:34.788Z,75.20
2018-02-16T15:01:03.128Z,75.10
2018-02-16T15:03:31.448Z,74.60
2018-02-16T15:05:59.739Z,74.60
2018-02-16T15:08:29.604Z,75.20
2018-02-16T15:10:57.905Z,75.10
2018-02-16T15:13:26.294Z,75.00
2018-02-16T15:15:55.323Z,75.10
2018-02-16T15:18:23.654Z,75.00
2018-02-16T15:20:51.954Z,75.40
2018-02-16T15:23:20.265Z,73.80
2018-02-16T15:25:48.594Z,74.60
2018-02-16T15:28:16.910Z,74.40
2018-02-16T15:30:45.264Z,74.40
2018-02-16T15:33:13.583Z,74.60
2018-02-16T15:35:41.899Z,74.70
2018-02-16T15:38:10.213Z,74.80
2018-02-16T15:40:38.564Z,74.30
2018-02-16T15:43:07.680Z,73.80
2018-02-16T15:45:36.124Z,73.80
2018-02-16T15:48:04.468Z,74.30
2018-02-16T15:50:32.775Z,74.50
2018-02-16T15:53:01.070Z,73.20
2018-02-16T15:55:29.354Z,73.30
2018-02-16T15:57:57.673Z,73.10
2018-02-16T16:00:25.976Z,73.20
2018-02-16T16:02:54.322Z,73.80
2018-02-16T16:05:22.630Z,74.00
2018-02-16T16:07:51.556Z,74.00
2018-02-16T16:10:19.886Z,73.90
2018-02-16T16:12:48.227Z,73.90
2018-02-16T16:15:16.546Z,74.30
2018-02-16T16:17:45.712Z,74.70
2018-02-16T16:20:14.026Z,74.70
2018-02-16T16:22:43.100Z,75.90
2018-02-16T16:25:11.589Z,75.20
2018-02-16T16:27:40.660Z,75.90
2018-02-16T16:30:08.952Z,75.90
2018-02-16T16:32:37.264Z,76.30
2018-02-16T16:35:05.577Z,76.90
2018-02-16T16:37:33.882Z,77.30
2018-02-16T16:40:02.289Z,77.50
2018-02-16T16:42:30.636Z,77.70
2018-02-16T16:44:58.999Z,78.10
2018-02-16T16:47:27.296Z,79.30
2018-02-16T16:49:55.614Z,79.70
2018-02-16T16:52:23.912Z,80.40
2018-02-16T16:54:52.244Z,81.30
2018-02-16T16:57:20.541Z,80.60
2018-02-16T16:59:48.853Z,80.70
2018-02-16T17:02:17.163Z,81.00
2018-02-16T17:04:46.219Z,81.50
2018-02-16T17:07:14.548Z,81.50
2018-02-16T17:09:43.623Z,82.80
2018-02-16T17:12:11.950Z,82.90
2018-02-16T17:14:40.283Z,83.50
2018-02-16T17:17:08.691Z,83.60
2018-02-16T17:19:37.773Z,84.40
2018-02-16T17:22:06.099Z,84.40
2018-02-16T17:24:34.437Z,84.60
2018-02-16T17:27:03.515Z,85.30
2018-02-16T17:29:31.825Z,85.30
2018-02-16T17:32:00.899Z,86.10
2018-02-16T17:34:29.211Z,86.00
2018-02-16T17:36:58.293Z,86.10
2018-02-16T17:39:26.619Z,86.00
2018-02-16T17:41:54.921Z,86.20
2018-02-16T17:44:23.221Z,86.40
2018-02-16T17:46:51.514Z,86.70
2018-02-16T17:49:19.817Z,87.20
2018-02-16T17:51:48.947Z,87.80
2018-02-16T17:54:17.259Z,87.80
2018-02-16T17:56:45.594Z,88.00
2018-02-16T17:59:13.903Z,88.20
2018-02-16T18:01:42.225Z,88.60
2018-02-16T18:04:10.544Z,89.00
2018-02-16T18:06:38.913Z,89.20
2018-02-16T18:09:08.133Z,90.00
2018-02-16T18:11:36.464Z,90.30
2018-02-16T18:14:06.280Z,90.10
2018-02-16T18:16:36.076Z,90.20
2018-02-16T18:19:04.392Z,90.20
2018-02-16T18:21:32.717Z,90.30
2018-02-16T18:24:01.037Z,90.40
2018-02-16T18:26:29.351Z,90.70
2018-02-16T18:28:58.458Z,90.90
2018-02-16T18:31:28.257Z,91.30
2018-02-16T18:33:57.347Z,91.40
2018-02-16T18:36:25.797Z,91.30
2018-02-16T18:38:54.124Z,91.40
2018-02-16T18:41:22.473Z,91.50
2018-02-16T18:43:50.805Z,91.60
2018-02-16T18:46:19.117Z,91.60
2018-02-16T18:48:47.441Z,91.60
2018-02-16T18:51:15.744Z,91.70
2018-02-16T18:53:44.836Z,91.60
2018-02-16T18:56:13.912Z,91.70
2018-02-16T18:58:42.265Z,91.60
2018-02-16T19:01:10.561Z,91.60
2018-02-16T19:03:38.903Z,91.70
2018-02-16T19:06:07.216Z,91.70
2018-02-16T19:08:35.535Z,91.70
2018-02-16T19:11:04.655Z,91.80
2018-02-16T19:13:33.740Z,91.80
2018-02-16T19:16:02.815Z,91.90
2018-02-16T19:18:31.137Z,91.90
2018-02-16T19:21:00.256Z,92.00
2018-02-16T19:23:28.576Z,92.00
2018-02-16T19:25:56.894Z,92.00
2018-02-16T19:28:26.012Z,92.00
2018-02-16T19:30:54.322Z,92.00
2018-02-16T19:33:22.643Z,92.10
2018-02-16T19:35:51.232Z,92.10
2018-02-16T19:38:19.590Z,92.10
2018-02-16T19:40:48.241Z,92.20
2018-02-16T19:43:16.607Z,92.40
2018-02-16T19:45:45.313Z,92.50
2018-02-16T19:48:13.679Z,92.60
2018-02-16T19:50:43.857Z,92.70
2018-02-16T19:53:12.194Z,92.70
2018-02-16T19:55:40.512Z,92.60
2018-02-16T19:58:08.828Z,92.70
2018-02-16T20:00:38.392Z,92.50
2018-02-16T20:03:07.546Z,93.00
2018-02-16T20:05:36.645Z,92.60
2018-02-16T20:08:05.713Z,92.60
2018-02-16T20:10:34.369Z,92.60
2018-02-16T20:13:03.100Z,92.60
2018-02-16T20:15:31.591Z,92.60
2018-02-16T20:18:01.663Z,92.60
2018-02-16T20:20:30.350Z,92.60
2018-02-16T20:22:59.017Z,92.60
2018-02-16T20:25:28.112Z,92.60
2018-02-16T20:27:58.324Z,92.60
2018-02-16T20:30:26.958Z,92.60
2018-02-16T20:32:55.743Z,92.60
2018-02-16T20:35:24.100Z,92.70
2018-02-16T20:37:53.197Z,92.70
2018-02-16T20:40:22.561Z,92.70
2018-02-16T20:42:52.042Z,92.70
2018-02-16T20:45:20.450Z,92.70
2018-02-16T20:47:49.114Z,92.60
2018-02-16T20:50:17.553Z,92.70
2018-02-16T20:52:46.679Z,92.80
2018-02-16T20:55:15.017Z,92.80
2018-02-16T20:57:43.325Z,92.80
2018-02-16T21:00:11.627Z,92.70
2018-02-16T21:02:40.702Z,92.60
2018-02-16T21:05:09.787Z,92.60
2018-02-16T21:07:38.128Z,92.60
2018-02-16T21:10:06.451Z,92.70
2018-02-16T21:12:34.803Z,92.80
2018-02-16T21:15:03.121Z,92.80
2018-02-16T21:17:31.429Z,92.90
2018-02-16T21:20:00.543Z,93.00
2018-02-16T21:22:28.872Z,93.00
2018-02-16T21:24:57.173Z,93.00
2018-02-16T21:27:25.493Z,93.10
2018-02-16T21:29:53.815Z,93.10
2018-02-16T21:32:22.121Z,93.20
2018-02-16T21:34:50.419Z,93.20
2018-02-16T21:37:19.567Z,93.10
2018-02-16T21:39:47.863Z,93.10
2018-02-16T21:42:16.162Z,93.20
2018-02-16T21:44:44.493Z,93.30
2018-02-16T21:47:12.809Z,93.40
2018-02-16T21:49:41.113Z,93.40
2018-02-16T21:52:10.212Z,93.50
2018-02-16T21:54:39.297Z,93.30
2018-02-16T21:57:07.607Z,93.30
2018-02-16T21:59:36.690Z,93.40
2018-02-16T22:02:05.751Z,93.30
2018-02-16T22:04:34.052Z,93.30
2018-02-16T22:07:02.366Z,93.20
2018-02-16T22:09:31.477Z,93.20
2018-02-16T22:12:00.022Z,93.20
2018-02-16T22:14:28.355Z,93.20
2018-02-16T22:16:56.744Z,93.30
2018-02-16T22:19:25.113Z,93.30
2018-02-16T22:21:53.411Z,93.30
2018-02-16T22:24:21.734Z,93.20
2018-02-16T22:26:50.061Z,93.00
2018-02-16T22:29:18.476Z,93.10
2018-02-16T22:31:46.968Z,93.10
2018-02-16T22:34:15.267Z,93.10
2018-02-16T22:36:43.736Z,93.10
2018-02-16T22:39:12.065Z,93.00
2018-02-16T22:41:41.156Z,92.90
2018-02-16T22:44:10.247Z,93.10
2018-02-16T22:46:39.318Z,93.40
2018-02-16T22:49:07.628Z,93.10
2018-02-16T22:51:36.706Z,93.00
2018-02-16T22:54:05.021Z,93.00
2018-02-16T22:56:34.113Z,92.90
2018-02-16T22:59:02.499Z,93.20
2018-02-16T23:01:30.777Z,92.90
2018-02-16T23:03:59.842Z,92.80
2018-02-16T23:06:28.177Z,92.80
2018-02-16T23:08:56.551Z,92.70
2018-02-16T23:11:25.616Z,92.70
2018-02-16T23:13:53.931Z,92.60
2018-02-16T23:16:23.008Z,92.60
2018-02-16T23:18:51.388Z,92.60
2018-02-16T23:21:19.712Z,92.60
2018-02-16T23:23:48.019Z,92.60
2018-02-16T23:26:16.317Z,92.60
2018-02-16T23:28:44.623Z,92.60
2018-02-16T23:31:12.926Z,92.60
2018-02-16T23:33:42.011Z,92.50
2018-02-16T23:36:10.326Z,92.50
2018-02-16T23:38:38.628Z,92.50
2018-02-16T23:41:06.919Z,92.50
2018-02-16T23:43:35.181Z,92.50
2018-02-16T23:46:04.277Z,92.50
2018-02-16T23:48:33.350Z,92.20
2018-02-16T23:51:01.674Z,92.40
2018-02-16T23:53:30.799Z,92.40
2018-02-16T23:55:59.140Z,92.40
2018-02-16T23:58:27.478Z,92.30
